Time;durP1;ratioP1;P1;durP2;ratioP2;P2;SDS_P1;SDS_P2;PMS_P1;PMS_P2;Temp;Humidity;BMP_temperature;BMP_pressure;BME280_temperature;BME280_humidity;BME280_pressure;Samples;Min_cycle;Max_cycle;Signal;HPM_P1;HPM_P2
2024/04/13 00:01:41;;;;;;;7.60;4.60;;;;;;;17.55;63.93;100840.91;5282352;27;20002;-87
2024/04/13 00:04:16;;;;;;;7.68;5.03;;;;;;;17.56;64.18;100845.25;5282445;27;20380;-87
2024/04/13 00:06:45;;;;;;;9.52;5.13;;;;;;;17.56;63.99;100837.28;5281402;27;20484;-87
2024/04/13 00:09:16;;;;;;;9.80;5.20;;;;;;;17.56;64.08;100841.72;5308861;26;20012;-87
2024/04/13 00:12:04;;;;;;;10.52;5.38;;;;;;;17.55;64.14;100835.56;5193684;27;20049;-87
2024/04/13 00:14:54;;;;;;;8.10;5.57;;;;;;;17.51;64.60;100836.75;5281934;27;20025;-87
2024/04/13 00:17:45;;;;;;;9.45;6.05;;;;;;;17.50;64.47;100832.38;5290500;27;20034;-87
2024/04/13 00:20:19;;;;;;;7.18;6.00;;;;;;;17.50;64.10;100829.72;5270340;27;20001;-88
2024/04/13 00:23:10;;;;;;;8.93;6.28;;;;;;;17.52;64.25;100829.59;5278586;27;20005;-87
2024/04/13 00:25:51;;;;;;;10.50;6.05;;;;;;;17.47;64.28;100829.06;5281196;27;20001;-87
2024/04/13 00:28:28;;;;;;;9.02;6.07;;;;;;;17.43;64.57;100836.41;5282651;26;20013;-87
2024/04/13 00:30:56;;;;;;;8.45;6.00;;;;;;;17.43;64.29;100826.59;5280014;27;20017;-87
2024/04/13 00:33:28;;;;;;;9.18;5.55;;;;;;;17.44;64.64;100822.16;5279323;27;20538;-87
2024/04/13 00:36:03;;;;;;;10.82;6.60;;;;;;;17.40;64.80;100847.25;5280905;27;20037;-87
2024/04/13 00:38:32;;;;;;;10.13;6.53;;;;;;;17.39;64.71;100816.28;5276285;27;20013;-87
2024/04/13 00:40:59;;;;;;;8.20;5.95;;;;;;;17.43;64.67;100821.28;5280279;27;20365;-87
2024/04/13 00:43:59;;;;;;;8.02;6.10;;;;;;;17.40;64.51;100815.31;5279450;27;20014;-87
2024/04/13 00:46:42;;;;;;;8.32;6.00;;;;;;;17.43;64.23;100821.28;5276075;27;20021;-87
2024/04/13 00:49:13;;;;;;;8.23;5.88;;;;;;;17.42;64.15;100813.44;5280657;27;20006;-87
2024/04/13 00:52:00;;;;;;;;;;;;;;;;;;;;;
2024/04/13 00:54:34;;;;;;;6.45;5.22;;;;;;;17.40;64.68;100810.00;5310605;27;20002;-87
2024/04/13 00:57:23;;;;;;;9.20;5.47;;;;;;;17.36;64.40;100798.72;5268000;27;20034;-87
2024/04/13 01:00:33;;;;;;;;;;;;;;;;;;;;;
2024/04/13 01:03:38;;;;;;;9.25;5.45;;;;;;;17.29;64.52;100806.28;5272280;27;20005;-87
2024/04/13 01:06:38;;;;;;;;;;;;;;;;;;;;;
2024/04/13 01:09:20;;;;;;;8.13;5.30;;;;;;;17.28;64.50;100793.94;5308992;21;20021;-87
2024/04/13 01:12:18;;;;;;;7.60;5.35;;;;;;;17.22;64.85;100791.69;5275500;27;20017;-87
2024/04/13 01:15:41;;;;;;;;;;;;;;;;;;;;;
2024/04/13 01:22:41;;;;;;;7.68;5.60;;;;;;;17.26;64.37;100787.84;5219650;27;20018;-87
2024/04/13 01:25:13;;;;;;;8.75;5.65;;;;;;;17.26;64.66;100787.84;5249611;27;20519;-87
2024/04/13 01:27:47;;;;;;;8.13;5.28;;;;;;;17.25;64.04;100777.31;5251136;27;19998;-87
2024/04/13 01:30:18;;;;;;;9.68;5.40;;;;;;;17.25;64.20;100793.28;5249004;27;20034;-87
2024/04/13 01:32:45;;;;;;;8.88;5.95;;;;;;;17.23;64.28;100782.75;5249190;27;20014;-87
2024/04/13 01:35:13;;;;;;;8.90;5.60;;;;;;;17.24;64.28;100788.94;5249337;27;20017;-87
2024/04/13 01:37:42;;;;;;;6.65;5.13;;;;;;;17.23;64.42;100782.75;5249432;27;20010;-87
2024/04/13 01:40:13;;;;;;;10.02;5.32;;;;;;;17.19;64.53;100784.78;5249029;27;20022;-87
2024/04/13 01:42:50;;;;;;;8.00;5.38;;;;;;;17.21;64.01;100776.69;5249922;27;20400;-87
2024/04/13 01:45:18;;;;;;;8.80;5.28;;;;;;;17.20;64.27;100780.31;5249423;27;20054;-87
2024/04/13 01:47:47;;;;;;;6.60;5.00;;;;;;;17.18;64.31;100779.56;5249660;27;20539;-87
2024/04/13 01:50:43;;;;;;;8.07;6.15;;;;;;;17.18;64.18;100783.06;5253879;27;20014;-87
2024/04/13 01:53:15;;;;;;;8.07;6.28;;;;;;;17.16;64.31;100789.47;5250344;27;20018;-87
2024/04/13 01:55:54;;;;;;;8.00;6.40;;;;;;;17.14;64.21;100772.75;5278805;27;20006;-87
2024/04/13 01:58:23;;;;;;;11.52;6.82;;;;;;;17.12;64.28;100777.31;5248992;27;20017;-87
2024/04/13 02:01:01;;;;;;;;;;;;;;;;;;;;;
2024/04/13 02:03:29;;;;;;;10.45;6.45;;;;;;;17.05;64.58;100780.38;5278141;27;20017;-87
2024/04/13 02:06:54;;;;;;;9.93;6.32;;;;;;;17.00;64.27;100757.69;5251589;27;20003;-87
2024/04/13 02:09:28;;;;;;;7.78;5.85;;;;;;;16.98;64.30;100759.59;5248781;27;20002;-88
2024/04/13 02:11:55;;;;;;;8.57;6.45;;;;;;;16.93;64.64;100757.25;5247925;27;20021;-87
2024/04/13 02:14:24;;;;;;;7.47;5.80;;;;;;;16.89;64.68;100745.97;5248231;27;20477;-87
2024/04/13 02:17:08;;;;;;;8.13;5.13;;;;;;;16.86;64.88;100761.31;5239003;27;20017;-87
2024/04/13 02:19:39;;;;;;;7.38;5.38;;;;;;;16.84;64.88;100757.88;5247387;27;20037;-87
2024/04/13 02:22:08;;;;;;;7.88;5.20;;;;;;;16.85;64.67;100762.25;5248445;27;20006;-87
2024/04/13 02:24:42;;;;;;;6.40;5.15;;;;;;;16.83;64.96;100756.19;5247789;27;20010;-87
2024/04/13 02:27:11;;;;;;;8.70;5.43;;;;;;;16.82;65.17;100751.81;5248580;27;20030;-87
2024/04/13 02:29:43;;;;;;;6.90;5.15;;;;;;;16.77;64.86;100758.31;5247003;27;20480;-87
2024/04/13 02:32:11;;;;;;;6.25;5.18;;;;;;;16.79;65.06;100747.56;5247189;27;20379;-87
2024/04/13 02:34:40;;;;;;;8.40;5.47;;;;;;;16.77;65.10;100753.00;5247747;27;20021;-87
2024/04/13 02:37:15;;;;;;;7.88;5.35;;;;;;;16.76;65.06;100753.94;5249857;27;20021;-87
2024/04/13 02:39:42;;;;;;;10.30;5.50;;;;;;;16.75;65.01;100744.25;5277210;27;20006;-87
2024/04/13 02:42:18;;;;;;;8.20;5.78;;;;;;;16.74;64.74;100750.53;5248189;27;20465;-87
2024/04/13 02:44:55;;;;;;;6.38;4.97;;;;;;;16.73;65.02;100746.16;5248395;27;20013;-87
2024/04/13 02:47:30;;;;;;;7.30;5.50;;;;;;;16.70;64.87;100735.72;5248242;27;20105;-87
2024/04/13 02:50:08;;;;;;;6.55;5.05;;;;;;;16.69;65.12;100744.66;5247310;27;20027;-87
2024/04/13 02:53:08;;;;;;;;;;;;;;;;;;;;;
2024/04/13 02:55:42;;;;;;;6.97;5.40;;;;;;;16.65;64.81;100740.50;5276900;27;20016;-87
2024/04/13 02:58:10;;;;;;;9.10;5.45;;;;;;;16.60;65.11;100751.44;5248189;27;20002;-87
2024/04/13 03:01:02;;;;;;;;;;;;;;;;;;;;;
2024/04/13 03:04:06;;;;;;;7.47;5.15;;;;;;;16.51;65.54;100744.94;5276811;27;20035;-87
2024/04/13 03:07:14;;;;;;;;;;;;;;;;;;;;;
2024/04/13 03:13:10;;;;;;;;;;;;;;;;;;;;;
2024/04/13 03:15:51;;;;;;;9.40;5.68;;;;;;;16.48;65.45;100739.00;5276880;27;20007;-87
2024/04/13 03:18:24;;;;;;;10.00;5.45;;;;;;;16.44;65.62;100737.50;5247541;27;20002;-87
2024/04/13 03:21:03;;;;;;;10.23;4.93;;;;;;;16.40;65.90;100743.00;5247431;27;20003;-88
2024/04/13 03:23:33;;;;;;;7.57;4.95;;;;;;;16.38;66.31;100733.44;5274851;27;20404;-87
2024/04/13 03:26:10;;;;;;;;;;;;;;;;;;;;;
2024/04/13 03:28:47;;;;;;;;;;;;;;;;;;;;;
2024/04/13 03:32:02;;;;;;;9.90;5.18;;;;;;;16.32;66.49;100742.66;5268479;27;20043;-87
2024/04/13 03:35:08;;;;;;;;;;;;;;;;;;;;;
2024/04/13 03:38:08;;;;;;;8.80;5.95;;;;;;;16.34;66.51;100750.53;5277188;27;20370;-87
2024/04/13 03:40:49;;;;;;;10.25;5.53;;;;;;;16.31;66.45;100746.25;5276362;27;20006;-87
2024/04/13 03:43:28;;;;;;;10.98;5.78;;;;;;;16.31;66.43;100750.72;5247224;27;20076;-87
2024/04/13 03:45:58;;;;;;;8.52;5.90;;;;;;;16.29;66.68;100750.81;5248567;27;20029;-87
2024/04/13 03:48:37;;;;;;;8.73;5.40;;;;;;;16.24;66.80;100745.81;5249361;27;20341;-87
2024/04/13 03:51:06;;;;;;;9.50;5.70;;;;;;;16.26;66.99;100753.69;5246994;27;20018;-87
2024/04/13 03:53:40;;;;;;;8.77;5.47;;;;;;;16.22;67.36;100754.84;5246824;27;20006;-86
2024/04/13 03:56:13;;;;;;;7.63;5.32;;;;;;;16.22;66.75;100744.22;5235355;27;20003;-86
2024/04/13 03:59:05;;;;;;;10.65;5.32;;;;;;;16.17;67.32;100746.28;5246963;27;20395;-87
2024/04/13 04:02:11;;;;;;;9.95;6.03;;;;;;;16.16;67.62;100750.78;5250173;27;20010;-87
2024/04/13 04:04:38;;;;;;;8.55;5.60;;;;;;;16.19;67.12;100747.94;5246501;27;20076;-87
2024/04/13 04:07:08;;;;;;;9.52;6.20;;;;;;;16.18;67.01;100748.03;5246796;27;20441;-87
2024/04/13 04:09:40;;;;;;;6.75;5.22;;;;;;;16.17;67.59;100763.09;5246036;27;20331;-87
2024/04/13 04:12:22;;;;;;;;;;;;;;;;;;;;;
2024/04/13 04:14:57;;;;;;;6.23;5.60;;;;;;;16.17;67.67;100757.78;5276251;27;20342;-87
2024/04/13 04:17:50;;;;;;;;;;;;;;;;;;;;;
2024/04/13 04:20:51;;;;;;;7.03;5.22;;;;;;;16.14;67.53;100753.53;5272514;27;20038;-87
2024/04/13 04:27:23;;;;;;;;;;;;;;;;;;;;;
2024/04/13 04:30:03;;;;;;;6.80;4.80;;;;;;;16.10;67.39;100756.47;5275197;27;20026;-87
2024/04/13 04:32:40;;;;;;;7.13;5.72;;;;;;;16.04;67.75;100755.06;5275787;27;20344;-87
2024/04/13 04:35:14;;;;;;;9.05;5.47;;;;;;;16.02;67.66;100755.16;5275616;27;20021;-87
2024/04/13 04:38:12;;;;;;;8.60;5.68;;;;;;;16.02;67.44;100759.63;5164316;27;20002;-87
2024/04/13 04:40:45;;;;;;;11.18;5.43;;;;;;;16.00;67.74;100751.75;5246327;27;20002;-87
2024/04/13 04:43:23;;;;;;;10.18;5.50;;;;;;;16.01;67.76;100760.56;5249036;27;20333;-87
2024/04/13 04:45:52;;;;;;;7.47;5.20;;;;;;;16.01;67.79;100761.41;5246022;27;20010;-87
2024/04/13 04:48:23;;;;;;;11.25;5.75;;;;;;;16.01;67.92;100758.75;5246759;27;20007;-87
2024/04/13 04:51:02;;;;;;;9.23;5.07;;;;;;;15.98;67.66;100766.94;5275420;27;20072;-87
2024/04/13 04:53:33;;;;;;;10.30;5.50;;;;;;;15.98;67.90;100766.94;5275268;27;20042;-87
2024/04/13 04:56:06;;;;;;;11.27;5.43;;;;;;;15.97;67.80;100751.97;5247688;27;20034;-87
2024/04/13 04:58:35;;;;;;;8.27;5.95;;;;;;;16.00;67.98;100756.22;5248740;27;20010;-87
2024/04/13 05:01:04;;;;;;;7.55;5.20;;;;;;;16.00;67.60;100759.72;5249204;27;20018;-87
2024/04/13 05:03:59;;;;;;;;;;;;;;;;;;;;;
2024/04/13 05:06:31;;;;;;;9.05;5.18;;;;;;;16.03;67.80;100761.31;5279006;27;20443;-87
2024/04/13 05:19:38;;;;;;;11.90;5.30;;;;;;;15.99;68.80;100771.28;5301525;27;20365;-91
2024/04/13 05:22:05;;;;;;;8.25;5.82;;;;;;;16.05;68.21;100763.88;5285097;27;20330;-92
2024/04/13 05:24:32;;;;;;;10.00;5.22;;;;;;;16.07;68.61;100768.13;5289587;27;20013;-91
2024/04/13 05:27:05;;;;;;;9.00;5.35;;;;;;;16.07;68.60;100760.16;5297377;27;20013;-89
2024/04/13 05:29:34;;;;;;;8.20;5.93;;;;;;;16.11;68.66;100766.16;5284919;27;20041;-89
2024/04/13 05:32:03;;;;;;;9.95;5.93;;;;;;;16.12;68.78;100775.81;5312696;27;20016;-90
2024/04/13 05:34:49;;;;;;;10.50;6.13;;;;;;;16.09;68.76;100760.94;5314287;27;20018;-90
2024/04/13 05:37:16;;;;;;;11.43;6.15;;;;;;;16.17;68.30;100772.84;5314229;27;20088;-90
2024/04/13 05:39:54;;;;;;;10.10;5.90;;;;;;;16.15;68.52;100778.28;5314099;27;20005;-90
2024/04/13 05:42:20;;;;;;;9.60;6.65;;;;;;;16.19;68.66;100782.47;5277538;27;20327;-88
2024/04/13 05:44:48;;;;;;;9.20;6.43;;;;;;;16.20;68.48;100778.84;5263562;27;20080;-88
2024/04/13 05:47:15;;;;;;;9.15;5.80;;;;;;;16.23;68.34;100786.59;5314415;27;20013;-87
2024/04/13 05:49:42;;;;;;;10.52;6.13;;;;;;;16.22;68.49;100784.88;5284036;27;20477;-87
2024/04/13 05:52:11;;;;;;;10.10;6.15;;;;;;;16.21;68.71;100780.53;5284599;27;20012;-87
2024/04/13 05:54:38;;;;;;;10.80;6.38;;;;;;;16.25;68.53;100782.06;5284240;27;20446;-88
2024/04/13 05:57:06;;;;;;;9.88;5.82;;;;;;;16.24;68.92;100785.66;5284298;27;20005;-87
2024/04/13 05:59:56;;;;;;;8.95;5.75;;;;;;;16.23;68.85;100780.44;5314280;27;20005;-87
2024/04/13 06:02:26;;;;;;;10.02;6.57;;;;;;;16.27;68.76;100774.81;5283840;27;20032;-87
2024/04/13 06:04:57;;;;;;;8.95;6.18;;;;;;;16.27;68.98;100774.81;5284165;27;20077;-88
2024/04/13 06:07:23;;;;;;;9.93;6.55;;;;;;;16.28;69.10;100767.72;5313947;27;20020;-90
2024/04/13 06:09:52;;;;;;;10.70;6.38;;;;;;;16.29;69.06;100769.41;5283606;27;20024;-89
2024/04/13 06:12:19;;;;;;;8.82;6.65;;;;;;;16.31;69.09;100774.63;5313690;27;20430;-89
2024/04/13 06:14:50;;;;;;;9.55;6.60;;;;;;;16.33;68.94;100781.53;5314095;27;20017;-89
2024/04/13 06:17:18;;;;;;;9.40;6.43;;;;;;;16.34;69.29;100774.44;5283713;27;20010;-89
2024/04/13 06:19:45;;;;;;;9.40;6.18;;;;;;;16.36;69.22;100776.03;5313428;27;20346;-87
2024/04/13 06:22:11;;;;;;;11.77;7.32;;;;;;;16.38;69.37;100775.94;5283568;27;20020;-87
2024/04/13 06:24:39;;;;;;;14.20;7.43;;;;;;;16.41;69.55;100781.06;5313408;27;20013;-87
2024/04/13 06:27:06;;;;;;;9.10;7.18;;;;;;;16.42;69.53;100785.41;5283499;27;20021;-87
2024/04/13 06:29:32;;;;;;;10.15;6.90;;;;;;;16.46;69.55;100783.41;5283918;27;20010;-88
2024/04/13 06:31:59;;;;;;;11.05;7.22;;;;;;;16.47;69.69;100780.66;5313705;27;20345;-88
2024/04/13 06:34:38;;;;;;;12.10;7.38;;;;;;;16.47;69.83;100782.44;5313377;27;20818;-88
2024/04/13 06:37:05;;;;;;;14.35;8.40;;;;;;;16.53;69.91;100780.22;5255929;27;20009;-87
2024/04/13 06:39:40;;;;;;;11.40;7.32;;;;;;;16.53;70.08;100764.28;5304992;27;20328;-87
2024/04/13 06:42:07;;;;;;;10.57;6.93;;;;;;;16.60;69.56;100769.22;5294248;27;20010;-87
2024/04/13 06:44:35;;;;;;;13.18;7.88;;;;;;;16.64;69.36;100766.22;5313271;27;20020;-88
2024/04/13 06:47:02;;;;;;;12.48;7.32;;;;;;;16.68;69.57;100777.53;5282248;27;20017;-87
2024/04/13 06:49:30;;;;;;;12.32;7.18;;;;;;;16.71;69.40;100776.47;5249418;27;20003;-88
2024/04/13 06:51:56;;;;;;;10.20;7.25;;;;;;;16.76;69.37;100775.22;5279337;27;20002;-87
2024/04/13 06:54:23;;;;;;;16.60;7.43;;;;;;;16.79;69.42;100756.38;5249707;27;20006;-88
2024/04/13 06:56:57;;;;;;;11.93;7.07;;;;;;;16.80;69.75;100757.25;5275886;27;20005;-87
2024/04/13 06:59:24;;;;;;;9.93;6.90;;;;;;;16.88;69.38;100770.00;5313443;27;20017;-87
2024/04/13 07:01:50;;;;;;;13.18;7.20;;;;;;;16.91;69.27;100761.84;5313265;27;20006;-87
2024/04/13 07:04:18;;;;;;;8.88;6.93;;;;;;;16.94;69.08;100756.31;5284949;27;20076;-88
2024/04/13 07:06:45;;;;;;;12.43;6.82;;;;;;;16.98;69.00;100760.47;5313484;27;20075;-88
2024/04/13 07:09:12;;;;;;;10.93;7.35;;;;;;;17.01;69.29;100760.25;5283230;27;20358;-88
2024/04/13 07:11:38;;;;;;;8.93;6.22;;;;;;;17.04;69.26;100749.44;5312842;27;20442;-87
2024/04/13 07:14:05;;;;;;;9.20;6.78;;;;;;;17.09;68.92;100734.97;5312999;27;20565;-88
2024/04/13 07:16:32;;;;;;;10.00;6.43;;;;;;;17.18;68.83;100750.28;5260237;27;20006;-87
2024/04/13 07:19:00;;;;;;;10.55;6.18;;;;;;;17.21;68.48;100754.53;5306559;27;20010;-88
2024/04/13 07:21:27;;;;;;;9.32;6.53;;;;;;;17.27;68.29;100744.31;5312769;27;20079;-87
2024/04/13 07:23:55;;;;;;;9.68;6.50;;;;;;;17.31;68.09;100747.63;5312798;27;20002;-88
2024/04/13 07:26:21;;;;;;;11.75;6.40;;;;;;;17.37;67.88;100743.66;5293659;27;20553;-88
2024/04/13 07:28:54;;;;;;;10.55;5.95;;;;;;;17.39;67.88;100749.75;5249183;27;20018;-87
2024/04/13 07:31:21;;;;;;;12.02;5.93;;;;;;;17.49;68.34;100745.47;5254048;27;20346;-88
2024/04/13 07:34:03;;;;;;;10.23;5.80;;;;;;;17.53;67.75;100741.63;5283264;27;20457;-87
2024/04/13 07:36:30;;;;;;;9.25;5.63;;;;;;;17.65;68.02;100734.59;5283180;27;20013;-90
2024/04/13 07:38:58;;;;;;;8.07;5.50;;;;;;;17.75;67.56;100742.78;5312449;27;20055;-89
2024/04/13 07:41:25;;;;;;;9.35;5.97;;;;;;;17.84;67.31;100743.94;5312445;27;20005;-90
2024/04/13 07:43:52;;;;;;;7.32;5.38;;;;;;;17.90;66.66;100746.16;5312560;27;20002;-87
2024/04/13 07:46:21;;;;;;;11.85;5.55;;;;;;;17.96;66.51;100753.72;5282493;27;20005;-87
2024/04/13 07:48:48;;;;;;;12.00;6.25;;;;;;;18.02;65.93;100746.22;5312692;27;20017;-88
2024/04/13 07:51:15;;;;;;;9.82;5.30;;;;;;;18.06;65.88;100743.22;5312250;27;20013;-88
2024/04/13 07:53:42;;;;;;;9.80;5.63;;;;;;;18.13;66.33;100742.81;5310806;27;20018;-88
2024/04/13 07:56:16;;;;;;;7.05;5.07;;;;;;;18.16;64.73;100743.44;5282804;27;20001;-88
2024/04/13 07:58:43;;;;;;;7.82;4.63;;;;;;;18.24;65.73;100737.53;5312214;27;20001;-88
2024/04/13 08:01:09;;;;;;;6.55;4.78;;;;;;;18.30;65.40;100744.22;5282487;27;20021;-88
2024/04/13 08:03:40;;;;;;;7.50;5.05;;;;;;;18.33;65.18;100749.31;5282817;27;20016;-87
2024/04/13 08:06:07;;;;;;;9.57;5.30;;;;;;;18.39;64.79;100745.38;5282482;27;20009;-87
2024/04/13 08:08:34;;;;;;;8.68;4.93;;;;;;;18.45;65.11;100745.75;5282778;27;20002;-88
2024/04/13 08:11:01;;;;;;;8.40;4.90;;;;;;;18.48;64.53;100745.53;5312357;27;20020;-88
2024/04/13 08:13:28;;;;;;;8.73;5.55;;;;;;;18.53;64.39;100744.31;5310298;27;20016;-88
2024/04/13 08:16:07;;;;;;;11.77;5.13;;;;;;;18.54;63.57;100744.19;5282471;27;19997;-87
2024/04/13 08:18:36;;;;;;;9.60;5.60;;;;;;;18.60;63.63;100740.22;5282454;27;20458;-88
2024/04/13 08:21:03;;;;;;;12.70;6.22;;;;;;;18.66;64.33;100728.25;5310182;27;20520;-87
2024/04/13 08:23:32;;;;;;;8.68;5.57;;;;;;;18.69;62.32;100739.53;5312127;27;20006;-88
2024/04/13 08:26:03;;;;;;;9.40;5.00;;;;;;;18.72;62.82;100741.09;5312195;27;20024;-88
2024/04/13 08:28:34;;;;;;;7.88;5.13;;;;;;;18.75;62.34;100738.22;5282062;27;20524;-88
2024/04/13 08:31:04;;;;;;;6.90;4.35;;;;;;;18.79;63.24;100734.34;5310625;27;20009;-88
2024/04/13 08:33:32;;;;;;;7.00;5.03;;;;;;;18.85;63.42;100738.38;5312213;27;20454;-88
2024/04/13 08:36:04;;;;;;;9.15;5.32;;;;;;;18.85;62.70;100733.91;5310526;27;20002;-88
2024/04/13 08:38:35;;;;;;;8.57;4.95;;;;;;;18.93;63.25;100727.97;5312171;27;20016;-88
2024/04/13 08:41:35;;;;;;;7.57;4.47;;;;;;;18.96;62.40;100725.06;5281766;27;20020;-88
2024/04/13 08:44:03;;;;;;;10.88;5.50;;;;;;;19.09;63.52;100718.78;5311760;27;20006;-88
2024/04/13 08:46:31;;;;;;;9.43;5.55;;;;;;;19.16;63.59;100714.69;5292366;27;20541;-88
2024/04/13 08:48:58;;;;;;;8.90;5.13;;;;;;;19.25;63.66;100726.47;5248310;27;20002;-88
2024/04/13 08:51:26;;;;;;;9.57;4.70;;;;;;;19.31;63.09;100731.31;5247886;27;20084;-88
2024/04/13 08:53:53;;;;;;;8.90;5.13;;;;;;;19.36;62.45;100733.63;5288215;27;20005;-88
2024/04/13 08:56:23;;;;;;;8.95;4.68;;;;;;;19.38;61.22;100729.00;5281844;27;20002;-88
2024/04/13 08:58:52;;;;;;;7.85;4.70;;;;;;;19.40;61.59;100721.75;5310016;27;20017;-87
2024/04/13 09:01:28;;;;;;;8.48;5.05;;;;;;;19.40;60.73;100727.09;5311740;27;20017;-88
2024/04/13 09:03:54;;;;;;;7.53;4.40;;;;;;;19.46;61.87;100731.91;5281973;27;20002;-87
2024/04/13 09:06:21;;;;;;;8.57;4.97;;;;;;;19.49;61.86;100728.16;5294805;27;20008;-87
2024/04/13 09:08:55;;;;;;;11.90;4.95;;;;;;;19.50;61.97;100724.50;5277203;27;20338;-88
2024/04/13 09:11:22;;;;;;;4.95;4.15;;;;;;;19.59;62.08;100721.09;5307776;27;20020;-87
2024/04/13 09:14:02;;;;;;;5.07;4.20;;;;;;;19.67;62.05;100709.81;5281459;27;20326;-88
2024/04/13 09:16:30;;;;;;;6.97;4.43;;;;;;;19.81;62.19;100710.53;5281592;27;20009;-88
2024/04/13 09:18:59;;;;;;;8.13;5.00;;;;;;;19.91;62.41;100709.66;5281318;27;20001;-88
2024/04/13 09:21:27;;;;;;;5.05;3.75;;;;;;;20.02;62.48;100703.47;5281379;27;20016;-88
2024/04/13 09:23:54;;;;;;;10.63;4.88;;;;;;;20.14;62.05;100716.75;5311497;27;19998;-87
2024/04/13 09:26:45;;;;;;;7.55;4.68;;;;;;;20.22;60.69;100705.47;5281275;27;20440;-88
2024/04/13 09:29:32;;;;;;;6.40;4.70;;;;;;;20.35;61.29;100694.59;5281330;27;20016;-87
2024/04/13 09:31:59;;;;;;;8.45;4.72;;;;;;;20.39;61.02;100693.34;5282241;27;20455;-88
2024/04/13 09:34:26;;;;;;;6.50;4.05;;;;;;;20.43;61.79;100684.94;5308260;27;20016;-88
2024/04/13 09:37:05;;;;;;;7.53;4.20;;;;;;;20.46;60.89;100697.22;5266006;27;19999;-88
2024/04/13 09:39:32;;;;;;;6.78;4.18;;;;;;;20.57;62.34;100682.94;5278171;27;20365;-87
2024/04/13 09:42:17;;;;;;;7.00;4.38;;;;;;;20.62;61.03;100685.19;5312821;27;20001;-87
2024/04/13 09:44:43;;;;;;;8.13;4.30;;;;;;;20.73;61.44;100673.59;5284373;27;20092;-88
2024/04/13 09:47:12;;;;;;;5.72;3.95;;;;;;;20.83;61.08;100685.22;5314336;27;20012;-87
2024/04/13 09:50:03;;;;;;;7.75;4.45;;;;;;;20.87;59.19;100677.75;5284236;27;20346;-88
2024/04/13 09:52:31;;;;;;;5.65;3.85;;;;;;;20.94;59.87;100674.44;5284212;27;20006;-88
2024/04/13 09:55:02;;;;;;;5.00;3.95;;;;;;;20.98;58.74;100675.03;5314225;26;20013;-87
2024/04/13 09:57:30;;;;;;;5.10;3.60;;;;;;;21.03;59.37;100662.09;5313909;27;20002;-88
2024/04/13 09:59:57;;;;;;;6.65;4.47;;;;;;;21.03;59.18;100671.94;5270069;27;20414;-88
2024/04/13 10:02:25;;;;;;;5.55;4.40;;;;;;;21.07;59.71;100662.66;5314207;27;20006;-88
2024/04/13 10:04:53;;;;;;;6.07;4.63;;;;;;;21.08;59.88;100654.50;5284225;27;20016;-88
2024/04/13 10:07:24;;;;;;;8.95;5.20;;;;;;;21.12;58.79;100662.28;5313773;27;20020;-88
2024/04/13 10:09:57;;;;;;;7.68;4.90;;;;;;;21.15;58.60;100660.16;5313998;26;20013;-88
2024/04/13 10:12:30;;;;;;;7.75;4.78;;;;;;;21.17;58.46;100657.38;5117729;27;20088;-88
2024/04/13 10:15:06;;;;;;;;;;;;;;;21.14;57.04;100661.16;5268930;27;20006;-87
2024/04/13 10:17:33;;;;;;;7.97;5.20;;;;;;;21.20;58.97;100647.22;5313936;27;20459;-88
2024/04/13 10:20:00;;;;;;;8.05;4.95;;;;;;;21.18;58.85;100653.69;5313696;27;20410;-88
2024/04/13 10:23:12;;;;;;;10.35;5.72;;;;;;;21.13;58.51;100651.44;5283714;27;20008;-88
2024/04/13 10:25:40;;;;;;;7.30;5.28;;;;;;;21.19;59.35;100656.25;5313742;27;20020;-88
2024/04/13 10:28:21;;;;;;;13.60;6.15;;;;;;;21.17;58.12;100649.34;5313744;27;20005;-88
2024/04/13 10:31:06;;;;;;;9.80;5.95;;;;;;;21.24;59.33;100641.59;5313928;27;20494;-87
2024/04/13 10:33:33;;;;;;;9.25;5.70;;;;;;;21.30;59.72;100644.59;5283941;27;20469;-88
2024/04/13 10:36:05;;;;;;;8.20;6.10;;;;;;;21.33;58.21;100644.31;5313676;27;20017;-87
2024/04/13 10:38:39;;;;;;;8.65;5.75;;;;;;;21.40;58.27;100633.91;5313513;27;20037;-90
2024/04/13 10:41:06;;;;;;;9.00;6.32;;;;;;;21.54;60.00;100637.19;5313605;27;20334;-88
2024/04/13 10:43:32;;;;;;;10.68;6.65;;;;;;;21.60;59.47;100625.91;5266171;27;20451;-88
2024/04/13 10:46:19;;;;;;;11.45;7.18;;;;;;;21.64;58.79;100621.97;5249965;27;20323;-87
2024/04/13 10:48:47;;;;;;;12.75;7.13;;;;;;;21.70;58.67;100618.75;5279417;27;20013;-88
2024/04/13 10:51:19;;;;;;;9.43;7.45;;;;;;;21.71;57.61;100612.38;5249627;27;20093;-89
2024/04/13 10:53:45;;;;;;;9.20;7.10;;;;;;;21.75;59.48;100604.94;5312323;27;20037;-88
2024/04/13 10:56:17;;;;;;;12.80;7.82;;;;;;;21.80;59.85;100623.28;5283282;27;20013;-88
2024/04/13 10:58:43;;;;;;;10.10;7.13;;;;;;;21.89;59.84;100595.63;5313194;27;20397;-88
2024/04/13 11:01:10;;;;;;;10.32;6.93;;;;;;;21.98;58.35;100589.44;5283415;27;20465;-88
2024/04/13 11:03:39;;;;;;;14.60;7.05;;;;;;;22.08;58.73;100589.44;5283641;27;20071;-88
2024/04/13 11:06:07;;;;;;;10.65;7.07;;;;;;;22.22;59.53;100582.78;5288560;27;20003;-88
2024/04/13 11:08:34;;;;;;;10.57;7.43;;;;;;;22.42;60.51;100582.72;5327753;21;20048;-86
2024/04/13 11:11:01;;;;;;;11.20;8.07;;;;;;;22.63;59.50;100589.78;5279300;27;20006;-86
2024/04/13 11:13:30;;;;;;;11.75;8.20;;;;;;;22.88;60.04;100590.09;5308315;27;20002;-87
2024/04/13 11:15:57;;;;;;;9.25;7.10;;;;;;;23.14;59.06;100571.44;5310086;27;20010;-87
2024/04/13 11:18:24;;;;;;;11.15;7.53;;;;;;;23.39;58.18;100573.59;5279728;26;20448;-86
2024/04/13 11:21:01;;;;;;;12.05;7.45;;;;;;;23.64;55.85;100573.84;5279565;27;20088;-86
2024/04/13 11:23:28;;;;;;;10.85;7.75;;;;;;;23.85;56.45;100572.69;5307513;27;20016;-86
2024/04/13 11:26:05;;;;;;;11.70;8.23;;;;;;;23.97;54.00;100568.75;5280068;27;20468;-86
2024/04/13 11:28:33;;;;;;;11.70;7.93;;;;;;;24.04;54.50;100568.97;5280116;26;20034;-87
2024/04/13 11:31:00;;;;;;;11.70;7.93;;;;;;;24.06;54.61;100554.38;5279229;27;20021;-86
2024/04/13 11:33:27;;;;;;;12.70;8.65;;;;;;;24.10;54.93;100559.44;5309755;27;20002;-87
2024/04/13 11:35:58;;;;;;;10.68;8.05;;;;;;;24.12;54.12;100552.09;5309647;27;20017;-87
2024/04/13 11:38:33;;;;;;;13.18;8.20;;;;;;;24.16;54.08;100553.47;5309502;27;20018;-87
2024/04/13 11:41:00;;;;;;;10.48;7.90;;;;;;;24.26;54.40;100548.00;5308339;27;20025;-86
2024/04/13 11:43:27;;;;;;;11.45;7.57;;;;;;;24.34;53.78;100540.78;5308097;27;20009;-86
2024/04/13 11:45:55;;;;;;;12.82;8.40;;;;;;;24.43;53.51;100528.25;5309404;27;20012;-86
2024/04/13 11:48:22;;;;;;;16.27;7.78;;;;;;;24.49;53.05;100532.16;5307998;26;20010;-86
2024/04/13 11:50:49;;;;;;;9.93;7.45;;;;;;;24.57;53.25;100528.66;5279671;27;20006;-86
2024/04/13 11:53:16;;;;;;;9.18;6.85;;;;;;;24.65;52.87;100531.38;5280517;27;20005;-87
2024/04/13 11:55:43;;;;;;;10.18;7.05;;;;;;;24.70;52.02;100515.59;5309335;27;20016;-86
2024/04/13 11:58:22;;;;;;;17.15;7.22;;;;;;;24.78;51.03;100512.06;5279820;27;20010;-87
2024/04/13 12:00:49;;;;;;;11.80;6.75;;;;;;;24.95;52.41;100504.06;5308991;27;20492;-87
2024/04/13 12:03:15;;;;;;;7.70;5.80;;;;;;;25.12;53.47;100504.97;5309284;27;20096;-86
2024/04/13 12:05:42;;;;;;;8.52;5.72;;;;;;;25.32;52.84;100504.66;5279210;27;20006;-87
2024/04/13 12:08:09;;;;;;;8.70;6.25;;;;;;;25.52;51.75;100497.09;5309766;27;20851;-87
2024/04/13 12:10:38;;;;;;;10.70;6.32;;;;;;;25.70;51.21;100501.50;5279096;27;20017;-87
2024/04/13 12:13:05;;;;;;;8.07;6.10;;;;;;;25.86;50.94;100487.16;5279208;27;20344;-87
2024/04/13 12:15:32;;;;;;;7.90;5.43;;;;;;;25.98;50.34;100483.09;5279091;27;20005;-86
2024/04/13 12:17:58;;;;;;;7.82;5.60;;;;;;;26.06;49.18;100484.97;5279579;27;20005;-88
2024/04/13 12:20:25;;;;;;;9.40;5.90;;;;;;;26.09;48.90;100459.50;5309139;27;20020;-87
2024/04/13 12:22:52;;;;;;;8.02;5.70;;;;;;;26.12;49.79;100449.19;5307409;27;20002;-87
2024/04/13 12:25:18;;;;;;;9.00;5.18;;;;;;;26.21;49.04;100449.16;5309258;27;20006;-88
2024/04/13 12:27:45;;;;;;;9.98;5.43;;;;;;;26.33;48.50;100445.09;5279091;27;20005;-87
2024/04/13 12:30:12;;;;;;;7.20;4.43;;;;;;;26.52;48.01;100467.28;5308565;27;20020;-87
2024/04/13 12:32:39;;;;;;;8.05;4.90;;;;;;;26.72;48.02;100472.28;5307248;27;20002;-87
2024/04/13 12:35:07;;;;;;;7.40;4.70;;;;;;;26.91;46.69;100460.19;5309614;27;20001;-87
2024/04/13 12:37:35;;;;;;;7.45;4.97;;;;;;;27.11;46.71;100446.22;5278898;27;20006;-87